createdAt,value
2022-10-03T00:01:00.987Z,97.49
2022-10-03T00:03:37.761Z,97.63
2022-10-03T00:06:15.397Z,97.68
2022-10-03T00:09:04.975Z,97.62
2022-10-03T00:11:43.782Z,97.88
2022-10-03T00:14:19.789Z,97.99
2022-10-03T00:17:04.300Z,98.10
2022-10-03T00:19:45.880Z,98.30
2022-10-03T00:22:23.493Z,98.18
2022-10-03T00:25:03.483Z,98.51
2022-10-03T00:27:38.220Z,98.40
2022-10-03T00:30:18.570Z,99.10
2022-10-03T00:33:06.091Z,99.08
2022-10-03T00:35:51.012Z,98.77
2022-10-03T00:38:37.837Z,99.05
2022-10-03T00:41:23.783Z,99.06
2022-10-03T00:44:29.893Z,98.83
2022-10-03T00:47:25.880Z,98.61
2022-10-03T00:50:20.917Z,98.87
2022-10-03T00:53:10.965Z,98.73
2022-10-03T00:55:52.159Z,99.01
2022-10-03T00:58:39.247Z,98.68
2022-10-03T01:01:24.610Z,99.14
2022-10-03T01:04:05.647Z,98.93
2022-10-03T01:06:43.325Z,99.27
2022-10-03T01:09:31.147Z,99.23
2022-10-03T01:12:15.756Z,98.82
2022-10-03T01:15:01.004Z,99.18
2022-10-03T01:17:40.061Z,99.13
2022-10-03T01:20:19.627Z,99.12
2022-10-03T01:23:27.628Z,99.08
2022-10-03T01:26:09.373Z,98.48
2022-10-03T01:29:05.992Z,98.49
2022-10-03T01:31:45.487Z,98.50
2022-10-03T01:34:23.237Z,98.34
2022-10-03T01:37:06.322Z,98.19
2022-10-03T01:39:43.419Z,97.92
2022-10-03T01:42:18.817Z,97.52
2022-10-03T01:45:05.120Z,97.20
2022-10-03T01:47:42.101Z,96.37
2022-10-03T01:50:19.661Z,96.18
2022-10-03T01:52:54.762Z,95.04
2022-10-03T01:55:31.090Z,95.38
2022-10-03T01:58:03.786Z,95.11
2022-10-03T02:00:44.066Z,94.88
2022-10-03T02:03:18.124Z,95.62
2022-10-03T02:05:55.536Z,95.51
2022-10-03T02:08:36.576Z,95.44
2022-10-03T02:11:07.387Z,95.80
2022-10-03T02:13:46.855Z,96.57
2022-10-03T02:16:30.332Z,96.91
2022-10-03T02:19:06.345Z,96.33
2022-10-03T02:21:35.531Z,96.95
2022-10-03T02:24:18.898Z,96.53
2022-10-03T02:27:14.196Z,97.02
2022-10-03T02:30:07.143Z,97.11
2022-10-03T02:33:04.751Z,97.90
2022-10-03T02:36:05.285Z,97.35
2022-10-03T02:39:03.732Z,97.15
2022-10-03T02:41:52.434Z,97.12
2022-10-03T02:44:50.727Z,96.76
2022-10-03T02:48:30.271Z,97.16
2022-10-03T02:51:33.477Z,97.30
2022-10-03T02:54:37.599Z,97.80
2022-10-03T02:57:39.023Z,98.38
2022-10-03T03:00:12.970Z,98.58
2022-10-03T03:03:16.947Z,98.99
2022-10-03T03:06:20.149Z,98.68
2022-10-03T03:09:23.327Z,98.67
2022-10-03T03:12:18.108Z,98.17
2022-10-03T03:15:31.908Z,97.85
2022-10-03T03:18:07.691Z,98.35
2022-10-03T03:20:57.942Z,98.45
2022-10-03T03:23:41.573Z,97.22
2022-10-03T03:26:35.604Z,97.98
2022-10-03T03:29:15.720Z,97.69
2022-10-03T03:31:54.602Z,97.33
2022-10-03T03:34:32.612Z,97.53
2022-10-03T03:37:08.327Z,97.89
2022-10-03T03:39:51.488Z,97.42
2022-10-03T03:42:43.104Z,98.00
2022-10-03T03:45:32.205Z,98.38
2022-10-03T03:48:15.554Z,98.66
2022-10-03T03:50:52.950Z,98.97
2022-10-03T03:54:00.599Z,98.60
2022-10-03T03:56:46.620Z,98.45
2022-10-03T03:59:31.169Z,98.56
2022-10-03T04:02:09.639Z,98.65
2022-10-03T04:04:52.061Z,98.64
2022-10-03T04:07:30.729Z,98.90
2022-10-03T04:10:16.939Z,98.69
2022-10-03T04:13:04.873Z,98.62
2022-10-03T04:15:55.085Z,99.11
2022-10-03T04:18:56.955Z,98.96
2022-10-03T04:21:50.527Z,99.70
2022-10-03T04:24:43.859Z,99.34
2022-10-03T04:27:30.053Z,99.30
2022-10-03T04:30:07.514Z,99.62
2022-10-03T04:32:52.404Z,99.29
2022-10-03T04:35:48.948Z,99.49
2022-10-03T04:38:32.303Z,99.34
2022-10-03T04:41:12.363Z,99.52
2022-10-03T04:43:45.514Z,98.70
2022-10-03T04:46:27.173Z,99.38
2022-10-03T04:49:04.044Z,99.34
2022-10-03T04:51:45.754Z,99.42
2022-10-03T04:54:25.985Z,99.09
2022-10-03T04:57:01.729Z,98.81
2022-10-03T04:59:42.404Z,98.31
2022-10-03T05:02:24.522Z,98.46
2022-10-03T05:05:11.075Z,98.40
2022-10-03T05:07:46.922Z,99.14
2022-10-03T05:10:48.407Z,98.24
2022-10-03T05:13:30.341Z,98.61
2022-10-03T05:16:08.943Z,98.51
2022-10-03T05:18:42.644Z,98.63
2022-10-03T05:21:16.023Z,98.43
2022-10-03T05:24:02.726Z,98.47
2022-10-03T05:26:45.502Z,98.56
2022-10-03T05:29:26.116Z,97.99
2022-10-03T05:32:09.595Z,97.97
2022-10-03T05:34:52.324Z,97.45
2022-10-03T05:37:41.466Z,97.18
2022-10-03T05:40:18.181Z,97.04
2022-10-03T05:43:06.523Z,97.20
2022-10-03T05:45:49.907Z,97.15
2022-10-03T05:48:32.994Z,96.97
2022-10-03T05:51:43.277Z,96.50
2022-10-03T05:54:30.975Z,96.64
2022-10-03T05:57:20.611Z,96.64
2022-10-03T06:00:18.382Z,96.72
2022-10-03T06:03:13.496Z,96.50
2022-10-03T06:06:05.299Z,97.02
2022-10-03T06:08:56.844Z,97.17
2022-10-03T06:11:47.783Z,97.77
2022-10-03T06:14:44.607Z,97.44
2022-10-03T06:17:43.437Z,97.92
2022-10-03T06:20:41.504Z,98.35
2022-10-03T06:23:43.200Z,98.18
2022-10-03T06:26:44.863Z,98.52
2022-10-03T06:29:43.826Z,98.70
2022-10-03T06:32:28.387Z,98.83
2022-10-03T06:35:30.221Z,98.16
2022-10-03T06:38:33.097Z,97.90
2022-10-03T06:41:34.336Z,98.26
2022-10-03T06:44:16.782Z,97.57
2022-10-03T06:47:13.491Z,98.22
2022-10-03T06:50:05.180Z,98.59
2022-10-03T06:52:51.954Z,98.79
2022-10-03T06:56:05.249Z,98.42
2022-10-03T06:58:59.157Z,98.04
2022-10-03T07:02:11.594Z,97.03
2022-10-03T07:05:17.849Z,97.39
2022-10-03T07:08:24.691Z,96.97
2022-10-03T07:11:07.750Z,97.21
2022-10-03T07:13:54.212Z,97.54
2022-10-03T07:16:50.671Z,97.04
2022-10-03T07:19:54.179Z,97.01
2022-10-03T07:22:43.747Z,97.77
2022-10-03T07:25:47.454Z,98.17
2022-10-03T07:29:12.011Z,98.04
2022-10-03T07:31:58.328Z,98.11
2022-10-03T07:35:27.067Z,97.76
2022-10-03T07:38:48.581Z,96.11
2022-10-03T07:41:45.772Z,96.30
2022-10-03T07:44:47.225Z,95.48
2022-10-03T07:47:59.855Z,95.75
2022-10-03T07:50:51.200Z,95.89
2022-10-03T07:53:58.734Z,95.34
2022-10-03T07:56:44.423Z,95.30
2022-10-03T07:59:43.852Z,94.76
2022-10-03T08:02:40.145Z,94.28
2022-10-03T08:05:25.133Z,94.99
2022-10-03T08:08:29.005Z,95.38
2022-10-03T08:11:42.680Z,93.43
2022-10-03T08:14:20.246Z,94.62
2022-10-03T08:17:26.807Z,93.31
2022-10-03T08:20:21.311Z,94.75
2022-10-03T08:23:03.198Z,94.76
2022-10-03T08:25:48.563Z,94.15
2022-10-03T08:28:38.836Z,93.08
2022-10-03T08:31:43.739Z,92.42
2022-10-03T08:34:38.966Z,93.59
2022-10-03T08:37:26.427Z,92.84
2022-10-03T08:40:22.419Z,91.16
2022-10-03T08:43:30.949Z,89.72
2022-10-03T08:46:17.337Z,89.77
2022-10-03T08:48:59.888Z,90.08
2022-10-03T08:51:55.326Z,94.08
2022-10-03T08:54:52.751Z,91.48
2022-10-03T08:57:38.527Z,91.02
2022-10-03T09:00:15.299Z,90.15
2022-10-03T09:03:33.431Z,92.11
2022-10-03T09:07:16.560Z,93.50
2022-10-03T09:10:25.438Z,93.01
2022-10-03T09:13:22.908Z,89.73
2022-10-03T09:16:18.782Z,88.15
2022-10-03T09:19:03.673Z,90.73
2022-10-03T09:22:06.544Z,90.96
2022-10-03T09:25:02.137Z,91.29
2022-10-03T09:28:09.802Z,92.18
2022-10-03T09:30:54.727Z,91.62
2022-10-03T09:34:15.047Z,89.23
2022-10-03T09:37:21.319Z,88.62
2022-10-03T09:40:18.970Z,88.95
2022-10-03T09:43:28.295Z,88.17
2022-10-03T09:46:19.219Z,89.00
2022-10-03T09:49:18.915Z,86.46
2022-10-03T09:52:00.563Z,90.08
2022-10-03T09:54:55.052Z,88.39
2022-10-03T09:57:59.516Z,87.17
2022-10-03T10:00:33.122Z,89.40
2022-10-03T10:03:51.825Z,89.56
2022-10-03T10:06:42.806Z,86.03
2022-10-03T10:09:41.806Z,86.70
2022-10-03T10:12:47.917Z,84.30
2022-10-03T10:15:36.934Z,88.22
2022-10-03T10:18:33.355Z,83.12
2022-10-03T10:21:43.011Z,86.20
2022-10-03T10:24:46.695Z,88.07
2022-10-03T10:27:55.780Z,86.41
2022-10-03T10:30:40.044Z,87.78
2022-10-03T10:33:42.542Z,86.44
2022-10-03T10:36:47.753Z,84.57
2022-10-03T10:39:51.190Z,81.75
2022-10-03T10:42:51.017Z,83.26
2022-10-03T10:45:45.653Z,78.93
2022-10-03T10:48:46.979Z,82.31
2022-10-03T10:51:45.278Z,80.01
2022-10-03T10:54:46.249Z,80.44
2022-10-03T10:57:24.212Z,79.85
2022-10-03T11:00:12.224Z,78.76
2022-10-03T11:03:33.915Z,80.06
2022-10-03T11:06:58.653Z,78.10
2022-10-03T11:10:08.399Z,77.04
2022-10-03T11:13:21.922Z,76.86
2022-10-03T11:16:44.096Z,76.76
2022-10-03T11:19:51.523Z,79.68
2022-10-03T11:23:09.331Z,78.19
2022-10-03T11:26:15.249Z,79.51
2022-10-03T11:29:15.828Z,76.40
2022-10-03T11:32:16.811Z,79.30
2022-10-03T11:35:29.166Z,78.69
2022-10-03T11:38:04.079Z,78.91
2022-10-03T11:40:42.226Z,76.29
2022-10-03T11:43:52.713Z,79.08
2022-10-03T11:46:37.361Z,76.26
2022-10-03T11:49:16.183Z,78.69
2022-10-03T11:51:53.546Z,79.98
2022-10-03T11:54:31.592Z,80.46
2022-10-03T11:57:02.872Z,80.88
2022-10-03T11:59:37.428Z,79.86
2022-10-03T12:02:14.211Z,79.36
2022-10-03T12:04:52.172Z,80.07
2022-10-03T12:07:58.424Z,80.55
2022-10-03T12:10:39.898Z,81.71
2022-10-03T12:13:16.692Z,80.21
2022-10-03T12:15:48.652Z,77.56
2022-10-03T12:18:26.003Z,78.32
2022-10-03T12:21:13.165Z,76.83
2022-10-03T12:24:08.075Z,76.40
2022-10-03T12:26:49.484Z,75.42
2022-10-03T12:29:21.018Z,76.50
2022-10-03T12:32:02.494Z,74.84
2022-10-03T12:34:40.590Z,77.30
2022-10-03T12:37:27.569Z,75.69
2022-10-03T12:40:04.453Z,76.62
2022-10-03T12:42:38.756Z,78.64
2022-10-03T12:45:17.909Z,75.08
2022-10-03T12:47:59.734Z,74.33
2022-10-03T12:50:43.851Z,75.97
2022-10-03T12:53:33.020Z,74.35
2022-10-03T12:56:07.759Z,72.79
2022-10-03T12:58:51.732Z,72.24
2022-10-03T13:01:29.525Z,71.55
2022-10-03T13:04:02.419Z,70.88
2022-10-03T13:07:02.378Z,69.89
2022-10-03T13:09:42.245Z,70.76
2022-10-03T13:12:26.830Z,69.26
2022-10-03T13:15:42.132Z,69.43
2022-10-03T13:18:50.982Z,69.50
2022-10-03T13:21:44.498Z,68.84
2022-10-03T13:24:22.237Z,68.44
2022-10-03T13:27:00.433Z,67.72
2022-10-03T13:29:34.668Z,69.58
2022-10-03T13:32:18.332Z,67.59
2022-10-03T13:35:23.214Z,68.67
2022-10-03T13:38:12.196Z,69.82
2022-10-03T13:40:46.359Z,68.42
2022-10-03T13:43:21.253Z,69.98
2022-10-03T13:45:51.354Z,69.83
2022-10-03T13:48:23.901Z,69.97
2022-10-03T13:51:01.844Z,68.39
2022-10-03T13:53:53.729Z,69.47
2022-10-03T13:56:37.978Z,68.79
2022-10-03T13:59:13.925Z,67.10
2022-10-03T14:01:51.727Z,69.15
2022-10-03T14:04:48.540Z,65.79
2022-10-03T14:07:25.079Z,67.67
2022-10-03T14:10:13.934Z,67.81
2022-10-03T14:13:04.796Z,67.01
2022-10-03T14:15:45.221Z,67.88
2022-10-03T14:18:25.280Z,69.13
2022-10-03T14:21:36.045Z,68.60
2022-10-03T14:24:16.813Z,69.37
2022-10-03T14:26:52.968Z,68.67
2022-10-03T14:29:27.787Z,68.79
2022-10-03T14:32:02.728Z,69.38
2022-10-03T14:34:48.011Z,67.45
2022-10-03T14:37:26.697Z,68.18
2022-10-03T14:40:13.535Z,68.17
2022-10-03T14:42:57.947Z,67.75
2022-10-03T14:45:30.067Z,66.69
2022-10-03T14:48:05.489Z,66.95
2022-10-03T14:50:34.605Z,67.07
2022-10-03T14:53:06.807Z,65.94
2022-10-03T14:55:44.958Z,65.28
2022-10-03T14:58:18.837Z,65.37
2022-10-03T15:00:49.694Z,65.64
2022-10-03T15:03:25.103Z,66.76
2022-10-03T15:06:01.617Z,66.43
2022-10-03T15:08:36.112Z,66.38
2022-10-03T15:11:07.612Z,65.63
2022-10-03T15:13:42.570Z,66.58
2022-10-03T15:16:16.002Z,66.62
2022-10-03T15:18:57.354Z,66.38
2022-10-03T15:21:27.287Z,66.36
2022-10-03T15:23:58.245Z,68.20
2022-10-03T15:26:31.421Z,68.50
2022-10-03T15:29:03.807Z,67.57
2022-10-03T15:31:36.072Z,69.02
2022-10-03T15:34:08.286Z,68.53
2022-10-03T15:36:39.452Z,68.27
2022-10-03T15:39:19.914Z,69.79
2022-10-03T15:41:55.736Z,69.44
2022-10-03T15:44:32.958Z,68.96
2022-10-03T15:47:07.093Z,68.85
2022-10-03T15:49:39.409Z,69.29
2022-10-03T15:52:15.823Z,69.44
2022-10-03T15:54:47.873Z,70.11
2022-10-03T15:57:25.419Z,70.29
2022-10-03T16:00:02.051Z,70.13
2022-10-03T16:02:40.446Z,71.82
2022-10-03T16:05:19.575Z,71.44
2022-10-03T16:07:58.337Z,71.22
2022-10-03T16:10:29.569Z,70.88
2022-10-03T16:13:07.867Z,68.62
2022-10-03T16:15:55.650Z,68.84
2022-10-03T16:18:48.452Z,68.57
2022-10-03T16:21:29.238Z,70.67
2022-10-03T16:24:00.580Z,69.67
2022-10-03T16:26:31.530Z,69.57
2022-10-03T16:29:13.197Z,68.48
2022-10-03T16:31:47.263Z,71.06
2022-10-03T16:34:17.772Z,70.85
2022-10-03T16:36:47.628Z,69.61
2022-10-03T16:39:22.095Z,69.74
2022-10-03T16:41:54.285Z,71.24
2022-10-03T16:44:29.024Z,71.92
2022-10-03T16:47:02.991Z,72.68
2022-10-03T16:50:01.512Z,72.76
2022-10-03T16:52:34.602Z,72.75
2022-10-03T16:55:06.926Z,71.89
2022-10-03T16:57:45.648Z,72.97
2022-10-03T17:00:21.426Z,72.13
2022-10-03T17:02:49.853Z,73.36
2022-10-03T17:05:19.128Z,73.93
2022-10-03T17:07:51.837Z,74.72
2022-10-03T17:10:35.126Z,75.76
2022-10-03T17:13:08.356Z,76.72
2022-10-03T17:15:48.537Z,79.75
2022-10-03T17:18:26.160Z,81.57
2022-10-03T17:20:57.211Z,82.18
2022-10-03T17:23:35.799Z,82.66
2022-10-03T17:26:10.107Z,81.64
2022-10-03T17:28:44.530Z,82.54
2022-10-03T17:31:30.438Z,81.54
2022-10-03T17:34:10.461Z,81.84
2022-10-03T17:37:16.274Z,82.41
2022-10-03T17:39:55.099Z,81.46
2022-10-03T17:42:38.412Z,81.12
2022-10-03T17:45:19.936Z,81.39
2022-10-03T17:47:56.778Z,82.20
2022-10-03T17:50:31.409Z,82.54
2022-10-03T17:53:01.581Z,82.74
2022-10-03T17:55:32.787Z,83.14
2022-10-03T17:58:05.826Z,83.80
2022-10-03T18:00:56.554Z,84.16
2022-10-03T18:03:30.988Z,83.99
2022-10-03T18:06:04.324Z,83.60
2022-10-03T18:08:37.722Z,83.90
2022-10-03T18:11:06.690Z,83.90
2022-10-03T18:13:39.607Z,83.79
2022-10-03T18:16:21.472Z,83.74
2022-10-03T18:19:21.798Z,83.10
2022-10-03T18:22:02.272Z,82.79
2022-10-03T18:24:44.410Z,83.21
2022-10-03T18:27:42.458Z,83.62
2022-10-03T18:30:17.547Z,84.23
2022-10-03T18:32:47.721Z,84.10
2022-10-03T18:35:22.202Z,84.19
2022-10-03T18:38:02.700Z,84.38
2022-10-03T18:40:34.696Z,84.15
2022-10-03T18:43:05.924Z,84.81
2022-10-03T18:45:44.805Z,84.65
2022-10-03T18:48:19.190Z,85.07
2022-10-03T18:51:11.385Z,84.82
2022-10-03T18:53:44.652Z,84.86
2022-10-03T18:56:14.472Z,84.61
2022-10-03T18:58:46.632Z,85.40
2022-10-03T19:01:20.484Z,85.47
2022-10-03T19:03:58.160Z,85.35
2022-10-03T19:06:30.423Z,85.36
2022-10-03T19:09:03.251Z,85.36
2022-10-03T19:11:34.687Z,85.27
2022-10-03T19:14:09.026Z,85.32
2022-10-03T19:16:59.310Z,85.36
2022-10-03T19:19:33.665Z,85.73
2022-10-03T19:22:06.737Z,85.66
2022-10-03T19:24:57.169Z,85.99
2022-10-03T19:27:30.365Z,85.98
2022-10-03T19:30:00.132Z,86.38
2022-10-03T19:32:32.053Z,86.02
2022-10-03T19:35:03.919Z,86.27
2022-10-03T19:37:45.511Z,85.53
2022-10-03T19:40:16.771Z,86.29
2022-10-03T19:42:49.504Z,86.52
2022-10-03T19:45:19.982Z,86.37
2022-10-03T19:47:53.355Z,85.65
2022-10-03T19:50:26.792Z,85.13
2022-10-03T19:52:57.059Z,85.64
2022-10-03T19:55:31.011Z,85.75
2022-10-03T19:58:02.304Z,86.17
2022-10-03T20:00:33.049Z,85.96
2022-10-03T20:03:14.724Z,86.55
2022-10-03T20:05:50.696Z,86.34
2022-10-03T20:08:32.151Z,85.89
2022-10-03T20:11:33.411Z,86.81
2022-10-03T20:14:02.613Z,86.47
2022-10-03T20:16:35.804Z,86.64
2022-10-03T20:19:09.924Z,87.19
2022-10-03T20:21:38.345Z,86.30
2022-10-03T20:24:14.283Z,86.56
2022-10-03T20:26:48.133Z,86.88
2022-10-03T20:29:26.187Z,86.58
2022-10-03T20:32:00.241Z,86.76
2022-10-03T20:34:28.499Z,85.99
2022-10-03T20:37:08.267Z,86.03
2022-10-03T20:39:41.627Z,86.23
2022-10-03T20:42:15.326Z,86.33
2022-10-03T20:45:02.437Z,85.87
2022-10-03T20:47:52.261Z,86.64
2022-10-03T20:50:25.846Z,85.84
2022-10-03T20:52:55.643Z,85.56
2022-10-03T20:55:27.711Z,85.46
2022-10-03T20:58:11.175Z,86.28
2022-10-03T21:00:46.310Z,85.39
2022-10-03T21:03:26.312Z,85.62
2022-10-03T21:05:57.187Z,86.16
2022-10-03T21:08:28.465Z,85.61
2022-10-03T21:11:00.146Z,86.98
2022-10-03T21:13:33.577Z,86.64
2022-10-03T21:16:03.889Z,87.10
2022-10-03T21:18:34.941Z,86.80
2022-10-03T21:21:08.755Z,86.85
2022-10-03T21:23:42.615Z,86.18
2022-10-03T21:26:13.083Z,86.22
2022-10-03T21:28:40.995Z,86.69
2022-10-03T21:31:22.607Z,86.95
2022-10-03T21:34:00.986Z,86.16
2022-10-03T21:36:49.316Z,86.47
2022-10-03T21:39:22.000Z,87.48
2022-10-03T21:42:06.090Z,87.19
2022-10-03T21:44:57.302Z,86.90
2022-10-03T21:47:43.853Z,87.05
2022-10-03T21:50:18.820Z,86.78
2022-10-03T21:53:10.177Z,87.31
2022-10-03T21:55:53.059Z,86.22
2022-10-03T21:58:49.853Z,86.68
2022-10-03T22:01:27.057Z,87.42
2022-10-03T22:04:00.799Z,87.21
2022-10-03T22:06:33.684Z,87.09
2022-10-03T22:09:03.274Z,87.02
2022-10-03T22:11:43.286Z,85.82
2022-10-03T22:14:22.484Z,87.14
2022-10-03T22:16:57.652Z,86.18
2022-10-03T22:19:34.522Z,86.01
2022-10-03T22:22:22.840Z,86.36
2022-10-03T22:25:11.602Z,86.70
2022-10-03T22:27:48.528Z,86.10
2022-10-03T22:30:19.806Z,86.27
2022-10-03T22:33:02.193Z,86.39
2022-10-03T22:35:49.268Z,86.75
2022-10-03T22:38:18.516Z,86.16
2022-10-03T22:40:51.473Z,86.01
2022-10-03T22:43:20.869Z,85.80
2022-10-03T22:45:52.331Z,85.83
2022-10-03T22:48:25.167Z,86.79
2022-10-03T22:50:54.967Z,85.77
2022-10-03T22:53:27.085Z,86.62
2022-10-03T22:56:17.748Z,86.21
2022-10-03T22:58:45.864Z,86.60
2022-10-03T23:01:15.243Z,85.98
2022-10-03T23:03:43.313Z,86.18
2022-10-03T23:06:31.967Z,86.25
2022-10-03T23:09:09.691Z,86.21
2022-10-03T23:11:40.107Z,85.83
2022-10-03T23:14:16.261Z,85.83
2022-10-03T23:16:54.055Z,85.68
2022-10-03T23:19:40.923Z,86.65
2022-10-03T23:22:15.109Z,85.40
2022-10-03T23:24:47.691Z,86.25
2022-10-03T23:27:50.281Z,86.12
2022-10-03T23:30:55.257Z,86.20
2022-10-03T23:33:53.155Z,86.20
2022-10-03T23:36:25.326Z,85.63
2022-10-03T23:39:01.221Z,86.09
2022-10-03T23:41:58.775Z,86.19
2022-10-03T23:44:43.635Z,86.50
2022-10-03T23:47:18.223Z,85.80
2022-10-03T23:49:51.483Z,85.97
2022-10-03T23:52:24.331Z,85.21
2022-10-03T23:54:55.777Z,86.10
2022-10-03T23:57:28.199Z,85.67
2022-10-03T23:59:56.507Z,86.26
